createdAt,value
2022-12-20T00:02:35.676Z,49.17
2022-12-20T00:05:24.271Z,44.90
2022-12-20T00:08:13.230Z,46.30
2022-12-20T00:11:03.018Z,52.27
2022-12-20T00:13:51.903Z,46.80
2022-12-20T00:16:40.373Z,57.40
2022-12-20T00:19:30.235Z,50.60
2022-12-20T00:22:18.671Z,45.13
2022-12-20T00:25:08.043Z,53.73
2022-12-20T00:27:56.573Z,53.93
2022-12-20T00:30:45.054Z,42.70
2022-12-20T00:33:34.033Z,48.70
2022-12-20T00:36:24.918Z,50.50
2022-12-20T00:39:13.461Z,47.77
2022-12-20T00:42:01.947Z,48.90
2022-12-20T00:44:50.400Z,49.90
2022-12-20T00:47:38.911Z,50.93
2022-12-20T00:50:27.386Z,53.43
2022-12-20T00:53:22.673Z,53.20
2022-12-20T00:56:15.087Z,49.70
2022-12-20T00:59:03.726Z,47.47
2022-12-20T01:01:52.677Z,45.40
2022-12-20T01:04:41.356Z,45.23
2022-12-20T01:07:29.843Z,47.10
2022-12-20T01:10:19.910Z,46.23
2022-12-20T01:13:08.407Z,45.37
2022-12-20T01:15:57.231Z,46.00
2022-12-20T01:18:46.477Z,44.77
2022-12-20T01:21:35.600Z,41.57
2022-12-20T01:24:24.064Z,43.80
2022-12-20T01:27:13.875Z,45.53
2022-12-20T01:30:02.405Z,41.67
2022-12-20T01:32:50.840Z,46.43
2022-12-20T01:35:39.269Z,42.53
2022-12-20T01:38:28.009Z,44.23
2022-12-20T01:41:18.073Z,44.13
2022-12-20T01:44:46.438Z,37.43
2022-12-20T01:47:37.789Z,38.87
2022-12-20T01:50:26.755Z,40.77
2022-12-20T01:53:15.731Z,39.87
2022-12-20T01:56:07.271Z,44.43
2022-12-20T01:58:56.583Z,37.60
2022-12-20T02:01:46.625Z,38.63
2022-12-20T02:04:35.122Z,35.70
2022-12-20T02:07:26.063Z,43.73
2022-12-20T02:10:16.114Z,38.47
2022-12-20T02:13:09.418Z,42.17
2022-12-20T02:15:59.573Z,43.27
2022-12-20T02:18:54.305Z,42.57
2022-12-20T02:21:44.543Z,40.00
2022-12-20T02:25:14.472Z,44.37
2022-12-20T02:28:05.555Z,45.23
2022-12-20T02:30:55.898Z,48.03
2022-12-20T02:33:48.346Z,55.33
2022-12-20T02:36:36.857Z,47.53
2022-12-20T02:39:27.403Z,43.50
2022-12-20T02:42:18.322Z,39.13
2022-12-20T02:45:15.360Z,40.87
2022-12-20T02:48:09.363Z,34.17
2022-12-20T02:50:59.056Z,33.10
2022-12-20T02:53:47.743Z,36.33
2022-12-20T02:56:39.774Z,31.93
2022-12-20T02:59:31.478Z,30.30
2022-12-20T03:02:20.184Z,31.37
2022-12-20T03:05:10.308Z,30.53
2022-12-20T03:07:58.723Z,35.23
2022-12-20T03:10:47.619Z,33.43
2022-12-20T03:13:36.060Z,33.80
2022-12-20T03:16:24.629Z,33.90
2022-12-20T03:19:13.052Z,39.80
2022-12-20T03:22:02.853Z,30.60
2022-12-20T03:24:51.381Z,30.80
2022-12-20T03:27:39.810Z,32.43
2022-12-20T03:30:28.519Z,31.67
2022-12-20T03:33:17.042Z,34.60
2022-12-20T03:36:06.055Z,31.33
2022-12-20T03:38:56.014Z,28.80
2022-12-20T03:41:44.528Z,29.73
2022-12-20T03:44:33.063Z,31.50
2022-12-20T03:47:21.500Z,31.80
2022-12-20T03:50:10.610Z,33.27
2022-12-20T03:52:59.068Z,30.83
2022-12-20T03:55:48.902Z,34.70
2022-12-20T03:58:37.350Z,33.10
2022-12-20T04:01:27.347Z,30.73
2022-12-20T04:04:16.435Z,34.67
2022-12-20T04:07:04.879Z,39.10
2022-12-20T04:09:53.293Z,33.20
2022-12-20T04:12:43.121Z,35.67
2022-12-20T04:15:31.599Z,34.67
2022-12-20T04:18:20.099Z,31.37
2022-12-20T04:21:10.451Z,35.10
2022-12-20T04:23:59.733Z,33.37
2022-12-20T04:26:49.261Z,35.33
2022-12-20T04:29:39.407Z,28.23
2022-12-20T04:32:27.874Z,28.13
2022-12-20T04:35:16.406Z,30.37
2022-12-20T04:38:04.955Z,28.77
2022-12-20T04:40:55.428Z,31.43
2022-12-20T04:43:43.881Z,28.37
2022-12-20T04:46:33.827Z,24.73
2022-12-20T04:49:22.281Z,33.17
2022-12-20T04:52:28.040Z,26.83
2022-12-20T04:55:16.553Z,23.90
2022-12-20T04:58:07.646Z,24.43
2022-12-20T05:00:56.543Z,27.63
2022-12-20T05:03:46.876Z,33.40
2022-12-20T05:06:35.379Z,25.63
2022-12-20T05:09:23.863Z,26.20
2022-12-20T05:12:12.375Z,27.33
2022-12-20T05:15:00.831Z,24.23
2022-12-20T05:17:49.305Z,23.20
2022-12-20T05:20:39.140Z,24.90
2022-12-20T05:23:45.144Z,30.50
2022-12-20T05:26:36.416Z,30.13
2022-12-20T05:29:24.899Z,30.87
2022-12-20T05:32:13.426Z,26.77
2022-12-20T05:35:01.906Z,28.47
2022-12-20T05:37:51.729Z,31.97
2022-12-20T05:40:40.788Z,32.47
2022-12-20T05:43:29.230Z,28.20
2022-12-20T05:46:17.799Z,33.30
2022-12-20T05:49:06.262Z,27.40
2022-12-20T05:51:54.685Z,31.17
2022-12-20T05:54:44.508Z,35.93
2022-12-20T05:57:32.914Z,25.70
2022-12-20T06:00:21.740Z,28.87
2022-12-20T06:03:11.820Z,27.50
2022-12-20T06:06:00.437Z,28.00
2022-12-20T06:08:49.555Z,25.90
2022-12-20T06:11:39.417Z,30.80
2022-12-20T06:14:27.909Z,29.87
2022-12-20T06:17:16.418Z,31.60
2022-12-20T06:20:06.013Z,27.70
2022-12-20T06:22:54.517Z,30.03
2022-12-20T06:25:43.819Z,27.03
2022-12-20T06:28:33.709Z,25.60
2022-12-20T06:31:22.286Z,24.30
2022-12-20T06:34:11.133Z,22.67
2022-12-20T06:36:59.838Z,24.63
2022-12-20T06:39:48.274Z,26.50
2022-12-20T06:42:36.733Z,29.13
2022-12-20T06:45:26.593Z,25.53
2022-12-20T06:48:15.162Z,21.43
2022-12-20T06:51:03.713Z,24.53
2022-12-20T06:53:52.304Z,21.57
2022-12-20T06:56:41.773Z,20.80
2022-12-20T06:59:30.372Z,21.97
2022-12-20T07:02:20.307Z,21.67
2022-12-20T07:05:09.619Z,23.87
2022-12-20T07:07:58.062Z,21.50
2022-12-20T07:10:46.610Z,23.20
2022-12-20T07:13:35.476Z,21.80
2022-12-20T07:16:24.361Z,24.60
2022-12-20T07:19:15.472Z,36.33
2022-12-20T07:22:04.523Z,24.67
2022-12-20T07:24:53.100Z,23.80
2022-12-20T07:27:41.632Z,24.53
2022-12-20T07:30:31.177Z,21.13
2022-12-20T07:33:19.721Z,27.40
2022-12-20T07:36:12.296Z,21.80
2022-12-20T07:39:00.767Z,20.37
2022-12-20T07:41:49.244Z,22.30
2022-12-20T07:44:37.862Z,21.73
2022-12-20T07:47:26.546Z,20.60
2022-12-20T07:50:15.147Z,18.50
2022-12-20T07:53:06.707Z,20.57
2022-12-20T07:55:55.817Z,19.97
2022-12-20T07:58:44.587Z,25.33
2022-12-20T08:01:33.326Z,23.63
2022-12-20T08:04:25.483Z,21.50
2022-12-20T08:07:14.052Z,26.33
2022-12-20T08:10:04.057Z,27.30
2022-12-20T08:12:52.584Z,26.80
2022-12-20T08:15:41.024Z,26.10
2022-12-20T08:18:29.549Z,23.37
2022-12-20T08:21:18.172Z,26.87
2022-12-20T08:24:08.191Z,24.47
2022-12-20T08:26:58.631Z,23.40
2022-12-20T08:29:47.123Z,22.80
2022-12-20T08:32:36.253Z,21.23
2022-12-20T08:35:25.509Z,23.47
2022-12-20T08:38:14.018Z,24.40
2022-12-20T08:41:06.670Z,24.27
2022-12-20T08:43:56.474Z,23.07
2022-12-20T08:46:45.049Z,27.47
2022-12-20T08:49:33.653Z,22.27
2022-12-20T08:52:22.574Z,24.40
2022-12-20T08:55:12.953Z,25.30
2022-12-20T08:58:01.766Z,27.33
2022-12-20T09:00:51.719Z,26.30
2022-12-20T09:03:41.047Z,34.70
2022-12-20T09:06:29.667Z,30.57
2022-12-20T09:09:18.156Z,29.17
2022-12-20T09:12:07.745Z,26.17
2022-12-20T09:14:56.225Z,26.67
2022-12-20T09:17:47.123Z,24.13
2022-12-20T09:20:35.645Z,25.30
2022-12-20T09:23:24.132Z,26.03
2022-12-20T09:26:14.816Z,23.53
2022-12-20T09:29:03.574Z,29.30
2022-12-20T09:31:52.042Z,22.10
2022-12-20T09:34:41.878Z,23.37
2022-12-20T09:37:31.071Z,18.80
2022-12-20T09:40:21.017Z,21.17
2022-12-20T09:43:10.693Z,21.47
2022-12-20T09:46:00.855Z,18.80
2022-12-20T09:48:49.565Z,20.70
2022-12-20T09:51:53.576Z,21.20
2022-12-20T09:54:49.398Z,22.97
2022-12-20T09:57:49.135Z,21.80
2022-12-20T10:00:41.857Z,22.77
2022-12-20T10:03:32.766Z,27.50
2022-12-20T10:06:30.006Z,23.90
2022-12-20T10:09:35.852Z,25.40
2022-12-20T10:12:30.697Z,23.00
2022-12-20T10:15:22.114Z,27.37
2022-12-20T10:18:35.790Z,29.57
2022-12-20T10:21:29.957Z,28.37
2022-12-20T10:24:20.135Z,29.50
2022-12-20T10:27:13.958Z,27.27
2022-12-20T10:30:02.531Z,27.70
2022-12-20T10:32:52.537Z,22.67
2022-12-20T10:35:43.296Z,24.53
2022-12-20T10:38:45.129Z,26.90
2022-12-20T10:41:35.697Z,26.60
2022-12-20T10:44:27.589Z,28.13
2022-12-20T10:47:26.239Z,26.70
2022-12-20T10:50:16.971Z,24.20
2022-12-20T10:53:21.869Z,25.07
2022-12-20T10:56:17.324Z,26.67
2022-12-20T10:59:28.401Z,32.63
2022-12-20T11:02:28.405Z,37.53
2022-12-20T11:05:25.464Z,35.07
2022-12-20T11:08:36.313Z,31.07
2022-12-20T11:11:26.601Z,29.90
2022-12-20T11:14:15.974Z,28.30
2022-12-20T11:17:16.324Z,25.67
2022-12-20T11:20:23.454Z,26.83
2022-12-20T11:23:23.218Z,25.17
2022-12-20T11:26:25.282Z,29.70
2022-12-20T11:29:26.389Z,37.70
2022-12-20T11:32:25.383Z,29.20
2022-12-20T11:35:16.203Z,26.33
2022-12-20T11:38:11.448Z,23.57
2022-12-20T11:41:11.968Z,23.20
2022-12-20T11:44:26.986Z,21.10
2022-12-20T11:47:32.625Z,21.30
2022-12-20T11:50:43.821Z,19.73
2022-12-20T11:53:37.469Z,27.03
2022-12-20T11:56:29.258Z,21.87
2022-12-20T11:59:22.037Z,19.30
2022-12-20T12:02:13.249Z,58.47
2022-12-20T12:05:06.741Z,25.20
2022-12-20T12:07:58.161Z,26.13
2022-12-20T12:10:52.020Z,25.93
2022-12-20T12:13:41.828Z,22.43
2022-12-20T12:16:35.164Z,23.77
2022-12-20T12:19:26.168Z,29.80
2022-12-20T12:22:18.826Z,22.83
2022-12-20T12:25:12.669Z,23.13
2022-12-20T12:28:01.503Z,19.70
2022-12-20T12:30:54.892Z,22.47
2022-12-20T12:33:46.221Z,21.33
2022-12-20T12:36:55.159Z,21.83
2022-12-20T12:40:02.052Z,26.47
2022-12-20T12:43:06.101Z,23.10
2022-12-20T12:45:58.143Z,22.83
2022-12-20T12:48:51.095Z,27.80
2022-12-20T12:51:41.780Z,24.37
2022-12-20T12:54:36.468Z,32.03
2022-12-20T12:57:26.375Z,29.60
2022-12-20T13:00:51.247Z,26.67
2022-12-20T13:03:46.721Z,23.07
2022-12-20T13:07:24.700Z,25.07
2022-12-20T13:10:50.412Z,27.23
2022-12-20T13:13:40.315Z,30.23
2022-12-20T13:17:09.561Z,27.03
2022-12-20T13:19:40.465Z,27.70
2022-12-20T13:22:29.019Z,31.87
2022-12-20T13:25:30.224Z,25.63
2022-12-20T13:28:46.534Z,32.93
2022-12-20T13:31:35.175Z,31.93
2022-12-20T13:34:54.072Z,30.07
2022-12-20T13:37:55.084Z,32.67
2022-12-20T13:40:45.767Z,36.80
2022-12-20T13:43:37.550Z,26.60
2022-12-20T13:46:31.737Z,27.13
2022-12-20T13:49:24.249Z,24.50
2022-12-20T13:52:30.674Z,28.20
2022-12-20T13:55:27.322Z,25.40
2022-12-20T13:58:18.342Z,26.50
2022-12-20T14:01:08.691Z,27.77
2022-12-20T14:03:59.177Z,24.30
2022-12-20T14:06:52.307Z,25.40
2022-12-20T14:09:40.892Z,29.90
2022-12-20T14:12:36.538Z,30.03
2022-12-20T14:15:28.709Z,28.20
2022-12-20T14:18:20.855Z,37.50
2022-12-20T14:21:11.924Z,29.03
2022-12-20T14:24:02.222Z,33.70
2022-12-20T14:26:53.847Z,29.20
2022-12-20T14:29:42.702Z,32.83
2022-12-20T14:32:31.403Z,27.87
2022-12-20T14:35:20.688Z,35.37
2022-12-20T14:38:23.573Z,34.23
2022-12-20T14:41:33.084Z,30.80
2022-12-20T14:44:23.256Z,30.10
2022-12-20T14:47:16.451Z,29.53
2022-12-20T14:50:07.654Z,31.90
2022-12-20T14:52:56.794Z,37.23
2022-12-20T14:55:47.743Z,34.70
2022-12-20T14:58:36.414Z,32.97
2022-12-20T15:01:27.139Z,34.53
2022-12-20T15:04:25.521Z,30.60
2022-12-20T15:07:30.320Z,35.23
2022-12-20T15:10:18.878Z,30.67
2022-12-20T15:13:13.138Z,37.30
2022-12-20T15:16:04.544Z,31.63
2022-12-20T15:18:54.652Z,33.13
2022-12-20T15:21:44.392Z,34.00
2022-12-20T15:24:33.630Z,35.97
2022-12-20T15:27:22.251Z,31.50
2022-12-20T15:30:15.034Z,29.10
2022-12-20T15:33:03.616Z,27.47
2022-12-20T15:35:52.578Z,27.60
2022-12-20T15:39:10.740Z,31.97
2022-12-20T15:41:50.374Z,31.20
2022-12-20T15:44:39.189Z,32.37
2022-12-20T15:47:29.187Z,31.20
2022-12-20T15:50:18.069Z,33.00
2022-12-20T15:53:06.676Z,33.17
2022-12-20T15:55:56.531Z,32.13
2022-12-20T15:58:45.030Z,34.80
2022-12-20T16:01:40.673Z,35.77
2022-12-20T16:04:31.108Z,33.90
2022-12-20T16:07:19.677Z,33.30
2022-12-20T16:10:09.562Z,34.17
2022-12-20T16:12:58.278Z,31.93
2022-12-20T16:15:47.423Z,47.33
2022-12-20T16:18:35.982Z,36.93
2022-12-20T16:21:27.534Z,30.93
2022-12-20T16:24:17.539Z,30.23
2022-12-20T16:27:06.211Z,35.80
2022-12-20T16:29:54.828Z,34.33
2022-12-20T16:32:43.342Z,33.67
2022-12-20T16:35:33.920Z,35.73
2022-12-20T16:38:24.300Z,40.17
2022-12-20T16:41:15.326Z,40.33
2022-12-20T16:44:04.721Z,39.30
2022-12-20T16:46:53.264Z,45.37
2022-12-20T16:49:47.304Z,42.93
2022-12-20T16:52:40.101Z,34.60
2022-12-20T16:55:37.706Z,33.30
2022-12-20T16:58:52.322Z,34.63
2022-12-20T17:01:38.668Z,36.27
2022-12-20T17:04:27.720Z,30.03
2022-12-20T17:07:16.432Z,32.00
2022-12-20T17:10:11.843Z,34.43
2022-12-20T17:13:01.878Z,35.70
2022-12-20T17:15:50.506Z,37.53
2022-12-20T17:18:38.985Z,37.37
2022-12-20T17:24:41.837Z,46.93
2022-12-20T17:27:30.451Z,66.40
2022-12-20T17:30:21.053Z,48.30
2022-12-20T17:33:11.749Z,50.83
2022-12-20T17:36:00.306Z,39.80
2022-12-20T17:38:50.792Z,42.73
2022-12-20T17:41:39.425Z,43.50
2022-12-20T17:44:29.435Z,40.13
2022-12-20T17:47:19.569Z,35.07
2022-12-20T17:50:10.450Z,34.10
2022-12-20T17:52:58.963Z,35.07
2022-12-20T17:55:47.483Z,32.30
2022-12-20T17:58:36.010Z,37.33
2022-12-20T18:01:25.841Z,32.93
2022-12-20T18:04:17.219Z,32.00
2022-12-20T18:07:05.997Z,31.43
2022-12-20T18:09:54.508Z,41.80
2022-12-20T18:12:43.043Z,40.60
2022-12-20T18:15:31.457Z,35.83
2022-12-20T18:18:20.521Z,40.37
2022-12-20T18:21:11.873Z,34.73
2022-12-20T18:24:00.455Z,67.77
2022-12-20T18:26:48.968Z,54.57
2022-12-20T18:29:37.626Z,36.70
2022-12-20T18:32:26.180Z,35.33
2022-12-20T18:35:14.728Z,36.57
2022-12-20T18:38:04.971Z,41.27
2022-12-20T18:40:53.436Z,48.27
2022-12-20T18:43:43.918Z,43.50
2022-12-20T18:46:32.847Z,41.87
2022-12-20T18:49:21.573Z,44.27
2022-12-20T18:52:10.116Z,35.10
2022-12-20T18:55:00.927Z,32.00
2022-12-20T18:57:49.497Z,36.97
2022-12-20T19:00:37.972Z,38.77
2022-12-20T19:03:27.112Z,50.20
2022-12-20T19:06:16.114Z,45.53
2022-12-20T19:09:06.682Z,39.50
2022-12-20T19:11:57.970Z,39.37
2022-12-20T19:14:46.629Z,40.30
2022-12-20T19:17:35.261Z,38.60
2022-12-20T19:20:23.665Z,38.03
2022-12-20T19:23:12.135Z,41.33
2022-12-20T19:26:05.366Z,43.93
2022-12-20T19:28:55.926Z,43.80
2022-12-20T19:31:44.622Z,40.37
2022-12-20T19:34:33.377Z,43.17
2022-12-20T19:37:22.053Z,42.67
2022-12-20T19:40:11.604Z,46.80
2022-12-20T19:43:00.605Z,45.23
2022-12-20T19:45:50.463Z,47.77
2022-12-20T19:48:38.961Z,45.87
2022-12-20T19:51:28.210Z,41.97
2022-12-20T19:54:16.758Z,43.00
2022-12-20T19:57:05.454Z,53.30
2022-12-20T19:59:56.223Z,49.20
2022-12-20T20:02:46.523Z,53.60
2022-12-20T20:05:35.753Z,49.40
2022-12-20T20:08:24.276Z,48.37
2022-12-20T20:11:14.153Z,45.73
2022-12-20T20:14:04.091Z,55.37
2022-12-20T20:16:53.194Z,45.27
2022-12-20T20:19:44.217Z,44.60
2022-12-20T20:22:32.770Z,51.67
2022-12-20T20:25:21.416Z,46.53
2022-12-20T20:28:10.058Z,46.23
2022-12-20T20:30:58.691Z,48.83
2022-12-20T20:33:47.528Z,43.27
2022-12-20T20:36:37.566Z,54.50
2022-12-20T20:39:26.137Z,53.23
2022-12-20T20:42:19.822Z,58.00
2022-12-20T20:45:12.471Z,53.60
2022-12-20T20:48:05.700Z,51.83
2022-12-20T20:50:54.784Z,50.63
2022-12-20T20:53:44.930Z,53.80
2022-12-20T20:56:33.393Z,54.53
2022-12-20T20:59:22.778Z,55.13
2022-12-20T21:02:13.697Z,59.83
2022-12-20T21:06:07.119Z,65.17
2022-12-20T21:08:11.051Z,54.03
2022-12-20T21:11:05.372Z,55.73
2022-12-20T21:13:54.776Z,54.07
2022-12-20T21:16:43.396Z,53.47
2022-12-20T21:19:31.973Z,43.43
2022-12-20T21:22:20.548Z,39.90
2022-12-20T21:25:09.869Z,40.97
2022-12-20T21:27:59.922Z,42.33
2022-12-20T21:30:48.409Z,53.33
2022-12-20T21:33:36.940Z,68.33
2022-12-20T21:36:25.987Z,49.47
2022-12-20T21:39:15.070Z,51.40
2022-12-20T21:42:03.645Z,47.97
2022-12-20T21:44:53.511Z,50.57
2022-12-20T21:47:42.035Z,54.03
2022-12-20T21:50:30.566Z,49.27
2022-12-20T21:53:19.880Z,45.70
2022-12-20T21:56:08.715Z,45.00
2022-12-20T21:58:57.701Z,39.70
2022-12-20T22:01:47.730Z,44.93
2022-12-20T22:04:36.535Z,44.30
2022-12-20T22:07:25.073Z,45.00
2022-12-20T22:10:13.609Z,57.40
2022-12-20T22:13:02.106Z,38.33
2022-12-20T22:15:51.134Z,38.60
2022-12-20T22:18:42.000Z,39.87
2022-12-20T22:21:32.625Z,41.33
2022-12-20T22:24:21.254Z,41.70
2022-12-20T22:27:11.601Z,48.60
2022-12-20T22:30:00.219Z,45.97
2022-12-20T22:32:48.706Z,50.10
2022-12-20T22:35:38.562Z,43.33
2022-12-20T22:38:27.006Z,46.20
2022-12-20T22:41:18.403Z,39.37
2022-12-20T22:44:07.038Z,46.53
2022-12-20T22:46:55.472Z,43.17
2022-12-20T22:49:43.971Z,44.30
2022-12-20T22:52:34.928Z,48.50
2022-12-20T22:55:23.441Z,50.00
2022-12-20T22:58:11.897Z,58.20
2022-12-20T23:01:01.694Z,48.93
2022-12-20T23:03:50.573Z,51.30
2022-12-20T23:06:39.070Z,40.53
2022-12-20T23:09:29.113Z,42.60
2022-12-20T23:12:35.248Z,38.53
2022-12-20T23:15:41.783Z,40.17
2022-12-20T23:18:30.398Z,51.57
2022-12-20T23:21:36.287Z,47.53
2022-12-20T23:24:24.965Z,45.57
2022-12-20T23:27:14.821Z,40.67
2022-12-20T23:30:04.171Z,36.70
2022-12-20T23:32:53.623Z,48.93
2022-12-20T23:35:42.143Z,47.53
2022-12-20T23:38:32.574Z,47.50
2022-12-20T23:41:21.089Z,49.97
2022-12-20T23:44:10.907Z,44.40
2022-12-20T23:46:59.339Z,43.23
2022-12-20T23:49:47.776Z,47.87
2022-12-20T23:52:36.736Z,50.17
2022-12-20T23:55:25.178Z,53.77
2022-12-20T23:58:13.691Z,57.60
